sensor_id;sensor_type;location;lat;lon;timestamp;P1;durP1;ratioP1;P2;durP2;ratioP2
44126;SDS011;29786;50.798;7.302;2022-09-17T00:00:15;10.6;;;3.5;;
44126;SDS011;29786;50.798;7.302;2022-09-17T00:01:16;7.6;;;3.5;;
44126;SDS011;29786;50.798;7.302;2022-09-17T00:02:15;10.8;;;3.2;;
44126;SDS011;29786;50.798;7.302;2022-09-17T00:03:15;8.5;;;3.2;;
44126;SDS011;29786;50.798;7.302;2022-09-17T00:04:15;10.3;;;3.9;;
44126;SDS011;29786;50.798;7.302;2022-09-17T00:05:15;10.2;;;3.5;;
44126;SDS011;29786;50.798;7.302;2022-09-17T00:06:15;9.2;;;3.1;;
44126;SDS011;29786;50.798;7.302;2022-09-17T00:07:15;9.9;;;3.6;;
44126;SDS011;29786;50.798;7.302;2022-09-17T00:08:15;9.7;;;3.6;;
44126;SDS011;29786;50.798;7.302;2022-09-17T00:09:15;8.6;;;3.5;;
44126;SDS011;29786;50.798;7.302;2022-09-17T00:10:15;7.5;;;2.8;;
44126;SDS011;29786;50.798;7.302;2022-09-17T00:11:18;10.2;;;3.6;;
44126;SDS011;29786;50.798;7.302;2022-09-17T00:12:15;10;;;3.7;;
44126;SDS011;29786;50.798;7.302;2022-09-17T00:13:15;8;;;3.3;;
44126;SDS011;29786;50.798;7.302;2022-09-17T00:14:15;8.3;;;3.6;;
44126;SDS011;29786;50.798;7.302;2022-09-17T00:15:15;7.5;;;3.4;;
44126;SDS011;29786;50.798;7.302;2022-09-17T00:16:24;9.5;;;3.5;;
44126;SDS011;29786;50.798;7.302;2022-09-17T00:17:15;9.6;;;3.3;;
44126;SDS011;29786;50.798;7.302;2022-09-17T00:18:15;8.1;;;3.6;;
44126;SDS011;29786;50.798;7.302;2022-09-17T00:19:16;8.9;;;3.5;;
44126;SDS011;29786;50.798;7.302;2022-09-17T00:20:15;7.8;;;3.7;;
44126;SDS011;29786;50.798;7.302;2022-09-17T00:21:16;11.7;;;4.4;;
44126;SDS011;29786;50.798;7.302;2022-09-17T00:22:15;10.5;;;4.1;;
44126;SDS011;29786;50.798;7.302;2022-09-17T00:23:15;13.8;;;4.3;;
44126;SDS011;29786;50.798;7.302;2022-09-17T00:24:15;10.1;;;4.5;;
44126;SDS011;29786;50.798;7.302;2022-09-17T00:25:15;10.9;;;4.5;;
44126;SDS011;29786;50.798;7.302;2022-09-17T00:26:15;7.3;;;4.1;;
44126;SDS011;29786;50.798;7.302;2022-09-17T00:27:15;11.3;;;4.2;;
44126;SDS011;29786;50.798;7.302;2022-09-17T00:28:15;11.3;;;4.1;;
44126;SDS011;29786;50.798;7.302;2022-09-17T00:29:15;11.3;;;4.6;;
44126;SDS011;29786;50.798;7.302;2022-09-17T00:30:15;11.8;;;4.3;;
44126;SDS011;29786;50.798;7.302;2022-09-17T00:31:15;8.2;;;4.2;;
44126;SDS011;29786;50.798;7.302;2022-09-17T00:32:15;11.4;;;4.3;;
44126;SDS011;29786;50.798;7.302;2022-09-17T00:33:16;12.7;;;4.4;;
44126;SDS011;29786;50.798;7.302;2022-09-17T00:34:15;10.6;;;3.6;;
44126;SDS011;29786;50.798;7.302;2022-09-17T00:35:15;8.7;;;3.8;;
44126;SDS011;29786;50.798;7.302;2022-09-17T00:36:15;12.9;;;4;;
44126;SDS011;29786;50.798;7.302;2022-09-17T00:37:15;10.5;;;3.7;;
44126;SDS011;29786;50.798;7.302;2022-09-17T00:38:15;10.4;;;4;;
44126;SDS011;29786;50.798;7.302;2022-09-17T00:39:15;9.9;;;4.1;;
44126;SDS011;29786;50.798;7.302;2022-09-17T00:40:15;9.4;;;4;;
44126;SDS011;29786;50.798;7.302;2022-09-17T00:41:15;11.9;;;4.3;;
44126;SDS011;29786;50.798;7.302;2022-09-17T00:42:15;12.9;;;3.9;;
44126;SDS011;29786;50.798;7.302;2022-09-17T00:43:54;10.4;;;4.2;;
44126;SDS011;29786;50.798;7.302;2022-09-17T00:44:49;13.6;;;4;;
44126;SDS011;29786;50.798;7.302;2022-09-17T00:45:15;10.4;;;4.2;;
44126;SDS011;29786;50.798;7.302;2022-09-17T00:46:21;11.5;;;4;;
44126;SDS011;29786;50.798;7.302;2022-09-17T00:47:18;9.4;;;3.7;;
44126;SDS011;29786;50.798;7.302;2022-09-17T00:48:15;11.7;;;3.9;;
44126;SDS011;29786;50.798;7.302;2022-09-17T00:49:16;11.9;;;3.9;;
44126;SDS011;29786;50.798;7.302;2022-09-17T00:50:18;11;;;4.2;;
44126;SDS011;29786;50.798;7.302;2022-09-17T00:51:17;13.7;;;4.3;;
44126;SDS011;29786;50.798;7.302;2022-09-17T00:52:17;8.3;;;3.4;;
44126;SDS011;29786;50.798;7.302;2022-09-17T00:53:16;13.1;;;4;;
44126;SDS011;29786;50.798;7.302;2022-09-17T00:54:15;10.2;;;3.6;;
44126;SDS011;29786;50.798;7.302;2022-09-17T00:55:18;9.1;;;3.5;;
44126;SDS011;29786;50.798;7.302;2022-09-17T00:56:21;7.7;;;3;;
44126;SDS011;29786;50.798;7.302;2022-09-17T00:57:15;8;;;3.6;;
44126;SDS011;29786;50.798;7.302;2022-09-17T00:58:15;10;;;3.5;;
44126;SDS011;29786;50.798;7.302;2022-09-17T00:59:15;9.4;;;3.3;;
44126;SDS011;29786;50.798;7.302;2022-09-17T01:00:15;7.6;;;3.3;;
44126;SDS011;29786;50.798;7.302;2022-09-17T01:01:15;10.5;;;3.1;;
44126;SDS011;29786;50.798;7.302;2022-09-17T01:02:15;7;;;3;;
44126;SDS011;29786;50.798;7.302;2022-09-17T01:03:15;11.1;;;3.5;;
44126;SDS011;29786;50.798;7.302;2022-09-17T01:04:20;11.7;;;3.5;;
44126;SDS011;29786;50.798;7.302;2022-09-17T01:05:15;6.3;;;3.1;;
44126;SDS011;29786;50.798;7.302;2022-09-17T01:06:19;12.7;;;3.2;;
44126;SDS011;29786;50.798;7.302;2022-09-17T01:07:30;11.8;;;3.2;;
44126;SDS011;29786;50.798;7.302;2022-09-17T01:08:20;9.9;;;2.9;;
44126;SDS011;29786;50.798;7.302;2022-09-17T01:09:20;8.1;;;3.3;;
44126;SDS011;29786;50.798;7.302;2022-09-17T01:10:20;8.1;;;3.2;;
44126;SDS011;29786;50.798;7.302;2022-09-17T01:11:20;6.7;;;2.6;;
44126;SDS011;29786;50.798;7.302;2022-09-17T01:12:23;8.3;;;3;;
44126;SDS011;29786;50.798;7.302;2022-09-17T01:13:20;11.2;;;2.9;;
44126;SDS011;29786;50.798;7.302;2022-09-17T01:15:20;8.4;;;2.7;;
44126;SDS011;29786;50.798;7.302;2022-09-17T01:16:19;12.4;;;3.3;;
44126;SDS011;29786;50.798;7.302;2022-09-17T01:24:24;8.8;;;3;;
44126;SDS011;29786;50.798;7.302;2022-09-17T01:25:19;7.8;;;3.1;;
44126;SDS011;29786;50.798;7.302;2022-09-17T01:26:24;13.4;;;3.4;;
44126;SDS011;29786;50.798;7.302;2022-09-17T01:27:21;11.9;;;3.6;;
44126;SDS011;29786;50.798;7.302;2022-09-17T01:28:38;10.5;;;3.7;;
44126;SDS011;29786;50.798;7.302;2022-09-17T01:29:54;8.3;;;3.4;;
44126;SDS011;29786;50.798;7.302;2022-09-17T01:30:18;11.9;;;3.8;;
44126;SDS011;29786;50.798;7.302;2022-09-17T01:31:25;8.6;;;3.7;;
44126;SDS011;29786;50.798;7.302;2022-09-17T01:32:17;10.5;;;4;;
44126;SDS011;29786;50.798;7.302;2022-09-17T01:33:22;10.4;;;3.5;;
44126;SDS011;29786;50.798;7.302;2022-09-17T01:34:51;12.2;;;4;;
44126;SDS011;29786;50.798;7.302;2022-09-17T01:35:18;10.7;;;4.2;;
44126;SDS011;29786;50.798;7.302;2022-09-17T01:36:21;11.6;;;4;;
44126;SDS011;29786;50.798;7.302;2022-09-17T01:37:18;14.7;;;4;;
44126;SDS011;29786;50.798;7.302;2022-09-17T01:38:21;10.7;;;4.2;;
44126;SDS011;29786;50.798;7.302;2022-09-17T01:39:49;9.8;;;3.9;;
44126;SDS011;29786;50.798;7.302;2022-09-17T01:40:20;9.5;;;4.2;;
44126;SDS011;29786;50.798;7.302;2022-09-17T01:41:20;10.1;;;3.6;;
44126;SDS011;29786;50.798;7.302;2022-09-17T01:42:21;10.7;;;3.8;;
44126;SDS011;29786;50.798;7.302;2022-09-17T01:43:21;9.4;;;3.4;;
44126;SDS011;29786;50.798;7.302;2022-09-17T01:44:27;10.8;;;3.9;;
44126;SDS011;29786;50.798;7.302;2022-09-17T01:45:18;12.8;;;3.8;;
44126;SDS011;29786;50.798;7.302;2022-09-17T01:47:17;12.3;;;4.4;;
44126;SDS011;29786;50.798;7.302;2022-09-17T01:48:16;14;;;4.4;;
44126;SDS011;29786;50.798;7.302;2022-09-17T01:49:15;14.2;;;4.4;;
44126;SDS011;29786;50.798;7.302;2022-09-17T01:50:16;16.3;;;4.9;;
44126;SDS011;29786;50.798;7.302;2022-09-17T01:51:18;11.4;;;4.5;;
44126;SDS011;29786;50.798;7.302;2022-09-17T01:52:15;11.5;;;4.6;;
44126;SDS011;29786;50.798;7.302;2022-09-17T01:53:15;14.3;;;5.1;;
44126;SDS011;29786;50.798;7.302;2022-09-17T01:54:17;13.6;;;5.1;;
44126;SDS011;29786;50.798;7.302;2022-09-17T01:55:15;13.9;;;4.8;;
44126;SDS011;29786;50.798;7.302;2022-09-17T01:56:16;12.4;;;4.5;;
44126;SDS011;29786;50.798;7.302;2022-09-17T01:57:21;12.4;;;5.5;;
44126;SDS011;29786;50.798;7.302;2022-09-17T01:58:17;17.6;;;5.4;;
44126;SDS011;29786;50.798;7.302;2022-09-17T01:59:19;16.4;;;5.2;;
44126;SDS011;29786;50.798;7.302;2022-09-17T02:00:15;14.4;;;5.2;;
44126;SDS011;29786;50.798;7.302;2022-09-17T02:01:16;16.6;;;6.1;;
44126;SDS011;29786;50.798;7.302;2022-09-17T02:02:17;15.2;;;5.2;;
44126;SDS011;29786;50.798;7.302;2022-09-17T02:03:18;16.6;;;5.3;;
44126;SDS011;29786;50.798;7.302;2022-09-17T02:04:18;12.5;;;5.8;;
44126;SDS011;29786;50.798;7.302;2022-09-17T02:05:17;13.4;;;5.9;;
44126;SDS011;29786;50.798;7.302;2022-09-17T02:06:16;12.1;;;5.5;;
44126;SDS011;29786;50.798;7.302;2022-09-17T02:07:17;17.2;;;5.8;;
44126;SDS011;29786;50.798;7.302;2022-09-17T02:08:16;20;;;5.7;;
44126;SDS011;29786;50.798;7.302;2022-09-17T02:09:17;15.9;;;6;;
44126;SDS011;29786;50.798;7.302;2022-09-17T02:10:17;17.3;;;5.4;;
44126;SDS011;29786;50.798;7.302;2022-09-17T02:11:15;21.1;;;5.8;;
44126;SDS011;29786;50.798;7.302;2022-09-17T02:12:17;12.8;;;5.4;;
44126;SDS011;29786;50.798;7.302;2022-09-17T02:13:19;16.7;;;5.7;;
44126;SDS011;29786;50.798;7.302;2022-09-17T02:14:17;13.6;;;5.6;;
44126;SDS011;29786;50.798;7.302;2022-09-17T02:15:17;11.8;;;6;;
44126;SDS011;29786;50.798;7.302;2022-09-17T02:16:18;17.4;;;5.8;;
44126;SDS011;29786;50.798;7.302;2022-09-17T02:17:18;18;;;5.8;;
44126;SDS011;29786;50.798;7.302;2022-09-17T02:18:21;14.7;;;5.5;;
44126;SDS011;29786;50.798;7.302;2022-09-17T02:19:17;18.8;;;6.7;;
44126;SDS011;29786;50.798;7.302;2022-09-17T02:20:15;13;;;7;;
44126;SDS011;29786;50.798;7.302;2022-09-17T02:21:16;21.4;;;6.6;;
44126;SDS011;29786;50.798;7.302;2022-09-17T02:22:49;18.2;;;6.4;;
44126;SDS011;29786;50.798;7.302;2022-09-17T02:23:18;14.9;;;6.4;;
44126;SDS011;29786;50.798;7.302;2022-09-17T02:24:24;16.5;;;6.5;;
44126;SDS011;29786;50.798;7.302;2022-09-17T02:25:19;17.7;;;7;;
44126;SDS011;29786;50.798;7.302;2022-09-17T02:26:16;21.6;;;8.5;;
44126;SDS011;29786;50.798;7.302;2022-09-17T02:27:18;16.6;;;8;;
44126;SDS011;29786;50.798;7.302;2022-09-17T02:28:18;17.3;;;8;;
44126;SDS011;29786;50.798;7.302;2022-09-17T02:29:18;19.5;;;8.3;;
44126;SDS011;29786;50.798;7.302;2022-09-17T02:30:15;20.7;;;8;;
44126;SDS011;29786;50.798;7.302;2022-09-17T02:31:15;20.5;;;8;;
44126;SDS011;29786;50.798;7.302;2022-09-17T02:32:15;15.7;;;8.1;;
44126;SDS011;29786;50.798;7.302;2022-09-17T02:33:15;14.7;;;8;;
44126;SDS011;29786;50.798;7.302;2022-09-17T02:34:15;22.7;;;9.6;;
44126;SDS011;29786;50.798;7.302;2022-09-17T02:35:15;15.9;;;8.8;;
44126;SDS011;29786;50.798;7.302;2022-09-17T02:36:15;17.4;;;9.3;;
44126;SDS011;29786;50.798;7.302;2022-09-17T02:37:15;21.5;;;10;;
44126;SDS011;29786;50.798;7.302;2022-09-17T02:38:30;25.8;;;9.2;;
44126;SDS011;29786;50.798;7.302;2022-09-17T02:39:15;19.7;;;9.2;;
44126;SDS011;29786;50.798;7.302;2022-09-17T02:40:16;18.3;;;8.5;;
44126;SDS011;29786;50.798;7.302;2022-09-17T02:41:17;20.4;;;9.3;;
44126;SDS011;29786;50.798;7.302;2022-09-17T02:42:21;20.2;;;8.7;;
44126;SDS011;29786;50.798;7.302;2022-09-17T02:43:22;22.5;;;8.9;;
44126;SDS011;29786;50.798;7.302;2022-09-17T02:44:25;22.3;;;9.1;;
44126;SDS011;29786;50.798;7.302;2022-09-17T02:45:19;23.9;;;8.7;;
44126;SDS011;29786;50.798;7.302;2022-09-17T02:46:52;20.9;;;9.4;;
44126;SDS011;29786;50.798;7.302;2022-09-17T02:47:22;23.6;;;9.8;;
44126;SDS011;29786;50.798;7.302;2022-09-17T02:48:19;22.4;;;9.5;;
44126;SDS011;29786;50.798;7.302;2022-09-17T02:49:35;20.9;;;9.2;;
44126;SDS011;29786;50.798;7.302;2022-09-17T02:50:59;21.9;;;8.7;;
44126;SDS011;29786;50.798;7.302;2022-09-17T02:51:21;24.2;;;10.4;;
44126;SDS011;29786;50.798;7.302;2022-09-17T02:52:16;21.1;;;9.5;;
44126;SDS011;29786;50.798;7.302;2022-09-17T02:53:21;22.8;;;9.5;;
44126;SDS011;29786;50.798;7.302;2022-09-17T02:54:17;22.2;;;9.5;;
44126;SDS011;29786;50.798;7.302;2022-09-17T02:55:17;20.8;;;9.6;;
44126;SDS011;29786;50.798;7.302;2022-09-17T02:56:18;20.3;;;9;;
44126;SDS011;29786;50.798;7.302;2022-09-17T02:57:19;24.4;;;8.7;;
44126;SDS011;29786;50.798;7.302;2022-09-17T02:58:20;23.5;;;8.3;;
44126;SDS011;29786;50.798;7.302;2022-09-17T02:59:17;25.7;;;9.8;;
44126;SDS011;29786;50.798;7.302;2022-09-17T03:00:16;19.9;;;9.3;;
44126;SDS011;29786;50.798;7.302;2022-09-17T03:01:18;21.4;;;9.4;;
44126;SDS011;29786;50.798;7.302;2022-09-17T03:02:20;25.3;;;9;;
44126;SDS011;29786;50.798;7.302;2022-09-17T03:03:17;21.4;;;8.6;;
44126;SDS011;29786;50.798;7.302;2022-09-17T03:04:15;20.7;;;9.4;;
44126;SDS011;29786;50.798;7.302;2022-09-17T03:05:16;22.8;;;9;;
44126;SDS011;29786;50.798;7.302;2022-09-17T03:06:15;23.1;;;9.5;;
44126;SDS011;29786;50.798;7.302;2022-09-17T03:07:16;24.4;;;10.2;;
44126;SDS011;29786;50.798;7.302;2022-09-17T03:08:15;26.4;;;10;;
44126;SDS011;29786;50.798;7.302;2022-09-17T03:09:15;24.3;;;10;;
44126;SDS011;29786;50.798;7.302;2022-09-17T03:10:15;19.3;;;9.4;;
44126;SDS011;29786;50.798;7.302;2022-09-17T03:11:15;20.2;;;9;;
44126;SDS011;29786;50.798;7.302;2022-09-17T03:12:15;26.6;;;8.9;;
44126;SDS011;29786;50.798;7.302;2022-09-17T03:13:15;20.6;;;8.2;;
44126;SDS011;29786;50.798;7.302;2022-09-17T03:14:15;20.7;;;8.5;;
44126;SDS011;29786;50.798;7.302;2022-09-17T03:15:15;23.3;;;8.1;;
44126;SDS011;29786;50.798;7.302;2022-09-17T03:16:15;20.6;;;7.8;;
44126;SDS011;29786;50.798;7.302;2022-09-17T03:17:15;19.4;;;7.3;;
44126;SDS011;29786;50.798;7.302;2022-09-17T03:18:15;22.7;;;7.8;;
44126;SDS011;29786;50.798;7.302;2022-09-17T03:19:15;15.6;;;6.6;;
44126;SDS011;29786;50.798;7.302;2022-09-17T03:20:15;21.6;;;7.4;;
44126;SDS011;29786;50.798;7.302;2022-09-17T03:21:15;22.8;;;7.1;;
44126;SDS011;29786;50.798;7.302;2022-09-17T03:22:15;26.9;;;7.7;;
44126;SDS011;29786;50.798;7.302;2022-09-17T03:23:15;19.3;;;7.3;;
44126;SDS011;29786;50.798;7.302;2022-09-17T03:24:15;16.2;;;7.1;;
44126;SDS011;29786;50.798;7.302;2022-09-17T03:25:15;19.4;;;6.7;;
44126;SDS011;29786;50.798;7.302;2022-09-17T03:26:15;17.6;;;6.5;;
44126;SDS011;29786;50.798;7.302;2022-09-17T03:27:15;20;;;6.2;;
44126;SDS011;29786;50.798;7.302;2022-09-17T03:28:15;16.9;;;6.5;;
44126;SDS011;29786;50.798;7.302;2022-09-17T03:29:15;17.3;;;6;;
44126;SDS011;29786;50.798;7.302;2022-09-17T03:30:15;21.1;;;6.2;;
44126;SDS011;29786;50.798;7.302;2022-09-17T03:31:15;16.6;;;5.9;;
44126;SDS011;29786;50.798;7.302;2022-09-17T03:32:15;21.3;;;6.5;;
44126;SDS011;29786;50.798;7.302;2022-09-17T03:33:15;17.9;;;6;;
44126;SDS011;29786;50.798;7.302;2022-09-17T03:34:15;20.2;;;5.8;;
44126;SDS011;29786;50.798;7.302;2022-09-17T03:35:15;23.3;;;6.1;;
44126;SDS011;29786;50.798;7.302;2022-09-17T03:36:15;24.6;;;6.9;;
44126;SDS011;29786;50.798;7.302;2022-09-17T03:37:15;25.9;;;6.5;;
44126;SDS011;29786;50.798;7.302;2022-09-17T03:38:15;17.7;;;6.4;;
44126;SDS011;29786;50.798;7.302;2022-09-17T03:39:15;19.8;;;6.2;;
44126;SDS011;29786;50.798;7.302;2022-09-17T03:40:15;20.7;;;6.6;;
44126;SDS011;29786;50.798;7.302;2022-09-17T03:41:15;21.9;;;6.2;;
44126;SDS011;29786;50.798;7.302;2022-09-17T03:42:15;17.1;;;5.8;;
44126;SDS011;29786;50.798;7.302;2022-09-17T03:43:15;19.9;;;6.4;;
44126;SDS011;29786;50.798;7.302;2022-09-17T03:44:15;17.4;;;6;;
44126;SDS011;29786;50.798;7.302;2022-09-17T03:45:15;24.3;;;6.4;;
44126;SDS011;29786;50.798;7.302;2022-09-17T03:46:15;18;;;6.7;;
44126;SDS011;29786;50.798;7.302;2022-09-17T03:47:15;21.9;;;6.3;;
44126;SDS011;29786;50.798;7.302;2022-09-17T03:48:15;18.8;;;6.3;;
44126;SDS011;29786;50.798;7.302;2022-09-17T03:49:15;18.5;;;6.1;;
44126;SDS011;29786;50.798;7.302;2022-09-17T03:50:15;18.6;;;5.9;;
44126;SDS011;29786;50.798;7.302;2022-09-17T03:51:15;19.5;;;6;;
44126;SDS011;29786;50.798;7.302;2022-09-17T03:52:15;19.3;;;6;;
44126;SDS011;29786;50.798;7.302;2022-09-17T03:53:15;27.5;;;6.6;;
44126;SDS011;29786;50.798;7.302;2022-09-17T03:54:15;21.7;;;5.5;;
44126;SDS011;29786;50.798;7.302;2022-09-17T03:55:15;22.2;;;6.5;;
44126;SDS011;29786;50.798;7.302;2022-09-17T03:56:15;22.1;;;5.6;;
44126;SDS011;29786;50.798;7.302;2022-09-17T03:57:15;25;;;6.3;;
44126;SDS011;29786;50.798;7.302;2022-09-17T03:58:15;17.7;;;5.6;;
44126;SDS011;29786;50.798;7.302;2022-09-17T03:59:15;21.6;;;6.1;;
44126;SDS011;29786;50.798;7.302;2022-09-17T04:00:15;19.7;;;5.8;;
44126;SDS011;29786;50.798;7.302;2022-09-17T04:01:15;17.5;;;6.4;;
44126;SDS011;29786;50.798;7.302;2022-09-17T04:02:15;21;;;5.9;;
44126;SDS011;29786;50.798;7.302;2022-09-17T04:03:15;18.3;;;5.6;;
44126;SDS011;29786;50.798;7.302;2022-09-17T04:04:15;23.3;;;6.3;;
44126;SDS011;29786;50.798;7.302;2022-09-17T04:05:15;28.1;;;7.1;;
44126;SDS011;29786;50.798;7.302;2022-09-17T04:06:15;15.9;;;5.6;;
44126;SDS011;29786;50.798;7.302;2022-09-17T04:07:15;20.1;;;6.5;;
44126;SDS011;29786;50.798;7.302;2022-09-17T04:08:15;17.7;;;5.6;;
44126;SDS011;29786;50.798;7.302;2022-09-17T04:09:15;23.6;;;5.7;;
44126;SDS011;29786;50.798;7.302;2022-09-17T04:10:15;21.1;;;7;;
44126;SDS011;29786;50.798;7.302;2022-09-17T04:11:15;22.2;;;6.1;;
44126;SDS011;29786;50.798;7.302;2022-09-17T04:12:15;20.5;;;6.5;;
44126;SDS011;29786;50.798;7.302;2022-09-17T04:13:15;22.2;;;6.5;;
44126;SDS011;29786;50.798;7.302;2022-09-17T04:14:15;23.8;;;6.4;;
44126;SDS011;29786;50.798;7.302;2022-09-17T04:15:15;17.4;;;6;;
44126;SDS011;29786;50.798;7.302;2022-09-17T04:16:15;23.2;;;6.6;;
44126;SDS011;29786;50.798;7.302;2022-09-17T04:17:15;17.1;;;6.1;;
44126;SDS011;29786;50.798;7.302;2022-09-17T04:18:15;22.2;;;7.7;;
44126;SDS011;29786;50.798;7.302;2022-09-17T04:19:15;17.4;;;5.6;;
44126;SDS011;29786;50.798;7.302;2022-09-17T04:20:15;22.9;;;6.3;;
44126;SDS011;29786;50.798;7.302;2022-09-17T04:21:15;26.3;;;7.3;;
44126;SDS011;29786;50.798;7.302;2022-09-17T04:22:15;21.4;;;6.5;;
44126;SDS011;29786;50.798;7.302;2022-09-17T04:23:15;22.9;;;7.2;;
44126;SDS011;29786;50.798;7.302;2022-09-17T04:24:15;20.1;;;6.4;;
44126;SDS011;29786;50.798;7.302;2022-09-17T04:25:15;18;;;5.8;;
44126;SDS011;29786;50.798;7.302;2022-09-17T04:26:15;22;;;7;;
44126;SDS011;29786;50.798;7.302;2022-09-17T04:27:15;19.8;;;5.6;;
44126;SDS011;29786;50.798;7.302;2022-09-17T04:28:15;30.6;;;5.9;;
44126;SDS011;29786;50.798;7.302;2022-09-17T04:29:15;19.9;;;6;;
44126;SDS011;29786;50.798;7.302;2022-09-17T04:30:15;22.9;;;6.3;;
44126;SDS011;29786;50.798;7.302;2022-09-17T04:31:15;23.8;;;6.3;;
44126;SDS011;29786;50.798;7.302;2022-09-17T04:32:15;20.6;;;6;;
44126;SDS011;29786;50.798;7.302;2022-09-17T04:33:15;20.7;;;6.1;;
44126;SDS011;29786;50.798;7.302;2022-09-17T04:34:15;18;;;5.9;;
44126;SDS011;29786;50.798;7.302;2022-09-17T04:35:15;22.7;;;6.3;;
44126;SDS011;29786;50.798;7.302;2022-09-17T04:36:15;23.1;;;5.4;;
44126;SDS011;29786;50.798;7.302;2022-09-17T04:37:15;22.7;;;6;;
44126;SDS011;29786;50.798;7.302;2022-09-17T04:38:15;23.6;;;5.9;;
44126;SDS011;29786;50.798;7.302;2022-09-17T04:39:15;22.4;;;6.6;;
44126;SDS011;29786;50.798;7.302;2022-09-17T04:40:15;23.6;;;5.5;;
44126;SDS011;29786;50.798;7.302;2022-09-17T04:41:15;24.9;;;6.1;;
44126;SDS011;29786;50.798;7.302;2022-09-17T04:42:15;23.8;;;6.1;;
44126;SDS011;29786;50.798;7.302;2022-09-17T04:43:15;24.3;;;6;;
44126;SDS011;29786;50.798;7.302;2022-09-17T04:44:15;20.9;;;5.6;;
44126;SDS011;29786;50.798;7.302;2022-09-17T04:45:15;15.9;;;5.7;;
44126;SDS011;29786;50.798;7.302;2022-09-17T04:46:15;19.1;;;5.4;;
44126;SDS011;29786;50.798;7.302;2022-09-17T04:47:15;20.5;;;5;;
44126;SDS011;29786;50.798;7.302;2022-09-17T04:48:15;21.2;;;5.4;;
44126;SDS011;29786;50.798;7.302;2022-09-17T04:49:15;22;;;5.7;;
44126;SDS011;29786;50.798;7.302;2022-09-17T04:50:16;21;;;5.7;;
44126;SDS011;29786;50.798;7.302;2022-09-17T04:51:15;24.7;;;5.7;;
44126;SDS011;29786;50.798;7.302;2022-09-17T04:52:15;15.9;;;5.2;;
44126;SDS011;29786;50.798;7.302;2022-09-17T04:53:15;22.6;;;6.2;;
44126;SDS011;29786;50.798;7.302;2022-09-17T04:54:15;20.2;;;5.7;;
44126;SDS011;29786;50.798;7.302;2022-09-17T04:55:15;21.6;;;5.9;;
44126;SDS011;29786;50.798;7.302;2022-09-17T04:56:15;22.3;;;5.3;;
44126;SDS011;29786;50.798;7.302;2022-09-17T04:57:15;21.2;;;5.6;;
44126;SDS011;29786;50.798;7.302;2022-09-17T04:58:15;19.6;;;5.4;;
44126;SDS011;29786;50.798;7.302;2022-09-17T04:59:15;18;;;5.9;;
44126;SDS011;29786;50.798;7.302;2022-09-17T05:00:15;24;;;6.6;;
44126;SDS011;29786;50.798;7.302;2022-09-17T05:01:15;21.1;;;6.1;;
44126;SDS011;29786;50.798;7.302;2022-09-17T05:02:15;18.7;;;5.9;;
44126;SDS011;29786;50.798;7.302;2022-09-17T05:03:15;15.4;;;5.5;;
44126;SDS011;29786;50.798;7.302;2022-09-17T05:04:15;21.6;;;5.7;;
44126;SDS011;29786;50.798;7.302;2022-09-17T05:05:15;21;;;5.6;;
44126;SDS011;29786;50.798;7.302;2022-09-17T05:06:15;21.7;;;5.7;;
44126;SDS011;29786;50.798;7.302;2022-09-17T05:07:15;23.5;;;5.9;;
44126;SDS011;29786;50.798;7.302;2022-09-17T05:08:15;17.9;;;5.7;;
44126;SDS011;29786;50.798;7.302;2022-09-17T05:09:15;20.6;;;5.7;;
44126;SDS011;29786;50.798;7.302;2022-09-17T05:10:15;21.2;;;5.4;;
44126;SDS011;29786;50.798;7.302;2022-09-17T05:11:15;18.2;;;5.5;;
44126;SDS011;29786;50.798;7.302;2022-09-17T05:12:15;18.1;;;4.4;;
44126;SDS011;29786;50.798;7.302;2022-09-17T05:13:15;18.3;;;5.5;;
44126;SDS011;29786;50.798;7.302;2022-09-17T05:14:15;15.1;;;4.9;;
44126;SDS011;29786;50.798;7.302;2022-09-17T05:15:15;27;;;5.5;;
44126;SDS011;29786;50.798;7.302;2022-09-17T05:16:15;18.8;;;5;;
44126;SDS011;29786;50.798;7.302;2022-09-17T05:17:15;20.9;;;5.3;;
44126;SDS011;29786;50.798;7.302;2022-09-17T05:18:15;17.9;;;4.9;;
44126;SDS011;29786;50.798;7.302;2022-09-17T05:19:15;16.6;;;4.4;;
44126;SDS011;29786;50.798;7.302;2022-09-17T05:20:15;20;;;5;;
44126;SDS011;29786;50.798;7.302;2022-09-17T05:21:15;21.2;;;5.2;;
44126;SDS011;29786;50.798;7.302;2022-09-17T05:22:15;18.6;;;5;;
44126;SDS011;29786;50.798;7.302;2022-09-17T05:23:15;18.2;;;5;;
44126;SDS011;29786;50.798;7.302;2022-09-17T05:24:15;16.1;;;4.7;;
44126;SDS011;29786;50.798;7.302;2022-09-17T05:25:16;18.6;;;4.4;;
44126;SDS011;29786;50.798;7.302;2022-09-17T05:26:15;13.7;;;4.3;;
44126;SDS011;29786;50.798;7.302;2022-09-17T05:27:15;18.2;;;4.7;;
44126;SDS011;29786;50.798;7.302;2022-09-17T05:28:15;24.2;;;4.9;;
44126;SDS011;29786;50.798;7.302;2022-09-17T05:29:15;19.8;;;4.9;;
44126;SDS011;29786;50.798;7.302;2022-09-17T05:30:15;20.3;;;5.2;;
44126;SDS011;29786;50.798;7.302;2022-09-17T05:31:15;16.6;;;5.2;;
44126;SDS011;29786;50.798;7.302;2022-09-17T05:32:15;22.3;;;4.6;;
44126;SDS011;29786;50.798;7.302;2022-09-17T05:33:15;14.6;;;4.7;;
44126;SDS011;29786;50.798;7.302;2022-09-17T05:34:15;21.4;;;4.6;;
44126;SDS011;29786;50.798;7.302;2022-09-17T05:35:15;20.2;;;4.8;;
44126;SDS011;29786;50.798;7.302;2022-09-17T05:36:15;23;;;4.6;;
44126;SDS011;29786;50.798;7.302;2022-09-17T05:37:15;19.4;;;4.7;;
44126;SDS011;29786;50.798;7.302;2022-09-17T05:38:15;16.8;;;4.6;;
44126;SDS011;29786;50.798;7.302;2022-09-17T05:39:15;21.8;;;4.4;;
44126;SDS011;29786;50.798;7.302;2022-09-17T05:40:15;19.2;;;4.5;;
44126;SDS011;29786;50.798;7.302;2022-09-17T05:41:15;16.2;;;4.6;;
44126;SDS011;29786;50.798;7.302;2022-09-17T05:42:15;17.1;;;4.6;;
44126;SDS011;29786;50.798;7.302;2022-09-17T05:43:15;16.1;;;4.4;;
44126;SDS011;29786;50.798;7.302;2022-09-17T05:44:15;17.5;;;4.4;;
44126;SDS011;29786;50.798;7.302;2022-09-17T05:45:15;22.4;;;5.1;;
44126;SDS011;29786;50.798;7.302;2022-09-17T05:46:15;24.1;;;4.6;;
44126;SDS011;29786;50.798;7.302;2022-09-17T05:47:15;23.1;;;4.8;;
44126;SDS011;29786;50.798;7.302;2022-09-17T05:48:15;16.9;;;4.5;;
44126;SDS011;29786;50.798;7.302;2022-09-17T05:49:15;18.4;;;4.8;;
44126;SDS011;29786;50.798;7.302;2022-09-17T05:50:15;18.1;;;4.3;;
44126;SDS011;29786;50.798;7.302;2022-09-17T05:51:15;18.5;;;4.5;;
44126;SDS011;29786;50.798;7.302;2022-09-17T05:52:15;21.3;;;5.2;;
44126;SDS011;29786;50.798;7.302;2022-09-17T05:53:15;14.3;;;4.6;;
44126;SDS011;29786;50.798;7.302;2022-09-17T05:54:15;23;;;5;;
44126;SDS011;29786;50.798;7.302;2022-09-17T05:55:16;20.9;;;4.4;;
44126;SDS011;29786;50.798;7.302;2022-09-17T05:56:15;19.7;;;4.4;;
44126;SDS011;29786;50.798;7.302;2022-09-17T05:57:15;20.1;;;4.5;;
44126;SDS011;29786;50.798;7.302;2022-09-17T05:58:16;14.1;;;3.9;;
44126;SDS011;29786;50.798;7.302;2022-09-17T05:59:15;16.9;;;5;;
44126;SDS011;29786;50.798;7.302;2022-09-17T06:00:15;20.1;;;4;;
44126;SDS011;29786;50.798;7.302;2022-09-17T06:01:15;15.3;;;3.5;;
44126;SDS011;29786;50.798;7.302;2022-09-17T06:02:15;16.2;;;4;;
44126;SDS011;29786;50.798;7.302;2022-09-17T06:03:16;17.9;;;4.2;;
44126;SDS011;29786;50.798;7.302;2022-09-17T06:04:15;16.8;;;3.8;;
44126;SDS011;29786;50.798;7.302;2022-09-17T06:05:15;22.1;;;3.9;;
44126;SDS011;29786;50.798;7.302;2022-09-17T06:06:15;24.5;;;4.4;;
44126;SDS011;29786;50.798;7.302;2022-09-17T06:07:15;17.3;;;4.2;;
44126;SDS011;29786;50.798;7.302;2022-09-17T06:08:15;19.8;;;4.1;;
44126;SDS011;29786;50.798;7.302;2022-09-17T06:09:15;14;;;3.4;;
44126;SDS011;29786;50.798;7.302;2022-09-17T06:10:15;20.5;;;3.6;;
44126;SDS011;29786;50.798;7.302;2022-09-17T06:11:15;13.7;;;3.7;;
44126;SDS011;29786;50.798;7.302;2022-09-17T06:12:15;15.3;;;3.8;;
44126;SDS011;29786;50.798;7.302;2022-09-17T06:13:16;17.2;;;3.7;;
44126;SDS011;29786;50.798;7.302;2022-09-17T06:14:15;14.9;;;4.2;;
44126;SDS011;29786;50.798;7.302;2022-09-17T06:15:15;18.1;;;4.5;;
44126;SDS011;29786;50.798;7.302;2022-09-17T06:16:15;18;;;3.5;;
44126;SDS011;29786;50.798;7.302;2022-09-17T06:17:15;15;;;3.6;;
44126;SDS011;29786;50.798;7.302;2022-09-17T06:18:15;18.3;;;4.2;;